Time;durP1;ratioP1;P1;durP2;ratioP2;P2;SDS_P1;SDS_P2;PMS_P1;PMS_P2;Temp;Humidity;BMP_temperature;BMP_pressure;BME280_temperature;BME280_humidity;BME280_pressure;Samples;Min_cycle;Max_cycle;Signal;HPM_P1;HPM_P2
2022/10/15 00:02:03;;;;;;;;;;;13.80;99.90;;;;;;5146212;27;20231;-75
2022/10/15 00:04:29;;;;;;;;;;;13.80;99.90;;;;;;5147543;27;19986;-76
2022/10/15 00:06:56;;;;;;;;;;;13.80;99.90;;;;;;5147534;27;19919;-75
2022/10/15 00:09:23;;;;;;;;;;;13.80;99.90;;;;;;5146817;27;19928;-76
2022/10/15 00:11:51;;;;;;;;;;;13.80;99.90;;;;;;5147442;27;19991;-76
2022/10/15 00:14:18;;;;;;;;;;;13.80;99.90;;;;;;5147191;27;19927;-76
2022/10/15 00:16:44;;;;;;;;;;;13.80;99.90;;;;;;5146694;27;19919;-75
2022/10/15 00:19:11;;;;;;;;;;;13.80;99.90;;;;;;5146765;27;19982;-76
2022/10/15 00:21:38;;;;;;;;;;;13.80;99.90;;;;;;5147105;27;20069;-75
2022/10/15 00:24:05;;;;;;;;;;;13.80;99.90;;;;;;5136990;27;19995;-75
2022/10/15 00:26:32;;;;;;;;;;;13.80;99.90;;;;;;5126238;28;20123;-76
2022/10/15 00:29:01;;;;;;;;;;;13.70;99.90;;;;;;5126469;28;19990;-75
2022/10/15 00:31:28;;;;;;;;;;;13.80;99.90;;;;;;5126508;28;19919;-76
2022/10/15 00:33:56;;;;;;;;;;;13.80;99.90;;;;;;5126334;28;19920;-76
2022/10/15 00:36:23;;;;;;;;;;;13.80;99.90;;;;;;5125262;28;19920;-76
2022/10/15 00:38:50;;;;;;;;;;;13.80;99.90;;;;;;5138156;27;19954;-76
2022/10/15 00:41:18;;;;;;;;;;;13.80;99.90;;;;;;5133734;27;19946;-75
2022/10/15 00:43:46;;;;;;;;;;;13.80;99.90;;;;;;5146468;27;19920;-76
2022/10/15 00:46:17;;;;;;;;;;;13.80;99.90;;;;;;5145791;27;19982;-75
2022/10/15 00:48:46;;;;;;;;;;;13.80;99.90;;;;;;5128985;27;19920;-76
2022/10/15 00:51:12;;;;;;;;;;;13.80;99.90;;;;;;5125985;28;20175;-76
2022/10/15 00:53:39;;;;;;;;;;;13.80;99.90;;;;;;5125951;28;19991;-75
2022/10/15 00:56:06;;;;;;;;;;;13.70;99.90;;;;;;5124452;28;19983;-76
2022/10/15 00:58:34;;;;;;;;;;;13.80;99.90;;;;;;5141497;27;20109;-77
2022/10/15 01:01:01;;;;;;;;;;;13.80;99.90;;;;;;5143392;27;19998;-76
2022/10/15 01:03:28;;;;;;;;;;;13.80;99.90;;;;;;5134541;27;19925;-75
2022/10/15 01:05:55;;;;;;;;;;;13.70;99.90;;;;;;5125442;28;19926;-74
2022/10/15 01:08:22;;;;;;;;;;;13.80;99.90;;;;;;5125717;28;19920;-76
2022/10/15 01:10:54;;;;;;;;;;;13.80;99.90;;;;;;5125564;28;20203;-77
2022/10/15 01:13:23;;;;;;;;;;;13.80;99.90;;;;;;5125821;28;19920;-75
2022/10/15 01:15:54;;;;;;;;;;;13.80;99.90;;;;;;5125064;28;19926;-75
2022/10/15 01:18:22;;;;;;;;;;;13.80;99.90;;;;;;5125053;28;19979;-75
2022/10/15 01:20:58;;;;;;;;;;;13.80;99.90;;;;;;5125580;28;19999;-75
2022/10/15 01:23:43;;;;;;;;;;;13.80;99.90;;;;;;5125322;28;19994;-75
2022/10/15 01:26:21;;;;;;;;;;;13.80;99.90;;;;;;5125110;28;19920;-73
2022/10/15 01:28:52;;;;;;;;;;;13.80;99.90;;;;;;5125181;28;19926;-74
2022/10/15 01:31:22;;;;;;;;;;;13.90;99.90;;;;;;5124915;28;19926;-76
2022/10/15 01:33:52;;;;;;;;;;;13.80;99.90;;;;;;5124032;28;19926;-76
2022/10/15 01:36:24;;;;;;;;;;;13.80;99.90;;;;;;5123928;28;20278;-76
2022/10/15 01:38:54;;;;;;;;;;;13.80;99.90;;;;;;5125022;28;19919;-75
2022/10/15 01:41:25;;;;;;;;;;;13.80;99.90;;;;;;5132272;27;19954;-75
2022/10/15 01:43:56;;;;;;;;;;;13.90;99.90;;;;;;5145648;27;19920;-76
2022/10/15 01:46:27;;;;;;;;;;;13.90;99.90;;;;;;5144996;27;20215;-75
2022/10/15 01:48:56;;;;;;;;;;;13.80;99.90;;;;;;5128766;27;19926;-76
2022/10/15 01:51:24;;;;;;;;;;;13.90;99.90;;;;;;5124566;28;19987;-74
2022/10/15 01:53:51;;;;;;;;;;;13.80;99.90;;;;;;5128484;27;21013;-74
2022/10/15 01:56:20;;;;;;;;;;;13.90;99.90;;;;;;5124460;28;20267;-76
2022/10/15 01:58:47;;;;;;;;;;;13.80;99.90;;;;;;5142103;27;19919;-76
2022/10/15 02:01:15;;;;;;;;;;;13.90;99.90;;;;;;5144760;27;19920;-74
2022/10/15 02:03:47;;;;;;;;;;;13.80;99.90;;;;;;5135327;27;20106;-76
2022/10/15 02:06:16;;;;;;;;;;;13.80;99.90;;;;;;5144897;27;19986;-76
2022/10/15 02:08:45;;;;;;;;;;;13.80;99.90;;;;;;5145109;27;19925;-76
2022/10/15 02:11:13;;;;;;;;;;;13.90;99.90;;;;;;5144970;27;19990;-76
2022/10/15 02:13:45;;;;;;;;;;;13.90;99.90;;;;;;5144874;27;20254;-75
2022/10/15 02:16:14;;;;;;;;;;;13.90;99.90;;;;;;5144220;27;19998;-75
2022/10/15 02:18:42;;;;;;;;;;;13.90;99.90;;;;;;5144978;27;19982;-76
2022/10/15 02:21:13;;;;;;;;;;;13.90;99.90;;;;;;5144908;27;19990;-77
2022/10/15 02:23:45;;;;;;;;;;;13.90;99.90;;;;;;5144800;27;20209;-74
2022/10/15 02:26:13;;;;;;;;;;;13.90;99.90;;;;;;5144712;27;19924;-75
2022/10/15 02:28:42;;;;;;;;;;;13.90;99.90;;;;;;5144700;27;20273;-73
2022/10/15 02:31:10;;;;;;;;;;;13.80;99.90;;;;;;5136718;27;19942;-76
2022/10/15 02:33:37;;;;;;;;;;;13.90;99.90;;;;;;5123427;28;20115;-75
2022/10/15 02:36:05;;;;;;;;;;;13.90;99.90;;;;;;5123327;28;20236;-76
2022/10/15 02:38:33;;;;;;;;;;;13.90;99.90;;;;;;5124367;27;19959;-76
2022/10/15 02:41:00;;;;;;;;;;;13.90;99.90;;;;;;5144531;27;20211;-76
2022/10/15 02:43:26;;;;;;;;;;;13.90;99.90;;;;;;5144907;27;19920;-76
2022/10/15 02:45:53;;;;;;;;;;;13.90;99.90;;;;;;5143629;27;19989;-76
2022/10/15 02:48:20;;;;;;;;;;;13.90;99.90;;;;;;5130598;27;20201;-76
2022/10/15 02:50:46;;;;;;;;;;;13.90;99.90;;;;;;5124218;28;19982;-76
2022/10/15 02:53:13;;;;;;;;;;;13.90;99.90;;;;;;5124000;28;19927;-76
2022/10/15 02:55:41;;;;;;;;;;;13.90;99.90;;;;;;5123513;28;20275;-77
2022/10/15 02:58:07;;;;;;;;;;;13.90;99.90;;;;;;5141521;28;19920;-76
2022/10/15 03:00:34;;;;;;;;;;;13.90;99.90;;;;;;5144448;28;19966;-77
2022/10/15 03:03:01;;;;;;;;;;;13.90;99.90;;;;;;5136138;28;19978;-76
2022/10/15 03:05:27;;;;;;;;;;;13.90;99.90;;;;;;5134457;27;19978;-76
2022/10/15 03:07:54;;;;;;;;;;;13.90;99.90;;;;;;5123942;28;20175;-76
2022/10/15 03:10:20;;;;;;;;;;;13.80;99.90;;;;;;5124058;28;20266;-75
2022/10/15 03:12:48;;;;;;;;;;;13.90;99.90;;;;;;5144337;28;19919;-77
2022/10/15 03:15:15;;;;;;;;;;;13.90;99.90;;;;;;5144454;28;19920;-76
2022/10/15 03:17:42;;;;;;;;;;;13.90;99.90;;;;;;5144402;27;19928;-77
2022/10/15 03:20:09;;;;;;;;;;;13.90;99.90;;;;;;5148615;27;19925;-76
2022/10/15 03:22:35;;;;;;;;;;;13.90;99.90;;;;;;5148771;27;19919;-77
2022/10/15 03:25:02;;;;;;;;;;;13.90;99.90;;;;;;5148110;27;19982;-74
2022/10/15 03:27:28;;;;;;;;;;;13.90;99.90;;;;;;5128332;28;19920;-77
2022/10/15 03:29:56;;;;;;;;;;;14.00;99.90;;;;;;5128068;28;19926;-76
2022/10/15 03:32:23;;;;;;;;;;;13.90;99.90;;;;;;5127887;28;19926;-75
2022/10/15 03:34:50;;;;;;;;;;;14.00;99.90;;;;;;5126433;28;20262;-77
2022/10/15 03:37:16;;;;;;;;;;;14.00;99.90;;;;;;5128221;28;19920;-76
2022/10/15 03:39:43;;;;;;;;;;;14.00;99.90;;;;;;5144658;27;20279;-77
2022/10/15 03:42:09;;;;;;;;;;;14.00;99.90;;;;;;5148359;27;19986;-75
2022/10/15 03:44:36;;;;;;;;;;;14.00;99.90;;;;;;5148044;27;19982;-77
2022/10/15 03:47:04;;;;;;;;;;;14.00;99.90;;;;;;5145381;27;19983;-76
2022/10/15 03:49:31;;;;;;;;;;;14.00;99.90;;;;;;5127608;28;19926;-77
2022/10/15 03:51:57;;;;;;;;;;;14.00;99.90;;;;;;5127543;28;19955;-77
2022/10/15 03:54:24;;;;;;;;;;;14.00;99.90;;;;;;5128774;27;19920;-76
2022/10/15 03:56:50;;;;;;;;;;;14.00;99.90;;;;;;5127366;27;19984;-77
2022/10/15 03:59:17;;;;;;;;;;;14.00;99.90;;;;;;5127371;28;20111;-77
2022/10/15 04:01:44;;;;;;;;;;;14.00;99.90;;;;;;5128416;27;19983;-77
2022/10/15 04:04:12;;;;;;;;;;;14.00;99.90;;;;;;5142004;27;19949;-76
2022/10/15 04:06:38;;;;;;;;;;;14.00;99.90;;;;;;5147365;27;20207;-75
2022/10/15 04:09:05;;;;;;;;;;;14.00;99.90;;;;;;5140767;27;20154;-77
2022/10/15 04:11:32;;;;;;;;;;;14.00;99.90;;;;;;5126936;28;20235;-77
2022/10/15 04:13:58;;;;;;;;;;;14.10;99.90;;;;;;5127058;28;20075;-76
2022/10/15 04:16:25;;;;;;;;;;;14.10;99.90;;;;;;5126620;28;20201;-77
2022/10/15 04:18:51;;;;;;;;;;;14.10;99.90;;;;;;5126877;28;19927;-76
2022/10/15 04:21:20;;;;;;;;;;;14.10;99.90;;;;;;5127048;28;19982;-77
2022/10/15 04:23:46;;;;;;;;;;;14.10;99.90;;;;;;5135993;27;19927;-75
2022/10/15 04:26:13;;;;;;;;;;;14.10;99.90;;;;;;5147294;27;19983;-76
2022/10/15 04:28:40;;;;;;;;;;;14.10;99.90;;;;;;5139076;27;20227;-77
2022/10/15 04:31:06;;;;;;;;;;;14.10;99.90;;;;;;5126885;28;19991;-76
2022/10/15 04:33:33;;;;;;;;;;;14.10;99.90;;;;;;5126869;28;19959;-76
2022/10/15 04:36:00;;;;;;;;;;;14.10;99.90;;;;;;5125444;28;19919;-76
2022/10/15 04:38:29;;;;;;;;;;;14.10;99.90;;;;;;5133204;27;19919;-75
2022/10/15 04:41:00;;;;;;;;;;;14.10;99.90;;;;;;5138660;27;19964;-77
2022/10/15 04:43:27;;;;;;;;;;;14.20;99.90;;;;;;5145955;27;20149;-77
2022/10/15 04:45:55;;;;;;;;;;;14.20;99.90;;;;;;5146669;27;19919;-76
2022/10/15 04:48:22;;;;;;;;;;;14.10;99.90;;;;;;5132798;27;19920;-76
2022/10/15 04:50:48;;;;;;;;;;;14.20;99.90;;;;;;5126092;28;20053;-76
2022/10/15 04:53:15;;;;;;;;;;;14.20;99.90;;;;;;5126373;28;20141;-77
2022/10/15 04:55:43;;;;;;;;;;;14.20;99.90;;;;;;5126246;28;19982;-76
2022/10/15 04:58:10;;;;;;;;;;;14.20;99.90;;;;;;5138025;27;19934;-75
2022/10/15 05:00:36;;;;;;;;;;;14.20;99.90;;;;;;5147332;27;19961;-76
2022/10/15 05:03:04;;;;;;;;;;;14.20;99.90;;;;;;5138616;27;20282;-75
2022/10/15 05:05:31;;;;;;;;;;;14.20;99.90;;;;;;5146654;27;20169;-77
2022/10/15 05:07:59;;;;;;;;;;;14.30;99.90;;;;;;5146382;27;20148;-77
2022/10/15 05:10:26;;;;;;;;;;;14.30;99.90;;;;;;5146090;27;19919;-76
2022/10/15 05:12:54;;;;;;;;;;;14.30;99.90;;;;;;5145393;27;19979;-75
2022/10/15 05:15:20;;;;;;;;;;;14.30;99.90;;;;;;5146091;27;19986;-76
2022/10/15 05:17:47;;;;;;;;;;;14.40;99.90;;;;;;5146487;27;20242;-74
2022/10/15 05:20:14;;;;;;;;;;;14.40;99.90;;;;;;5145958;27;19983;-73
2022/10/15 05:22:40;;;;;;;;;;;14.40;99.90;;;;;;5145868;27;19927;-75
2022/10/15 05:25:07;;;;;;;;;;;14.40;99.90;;;;;;5145455;27;20174;-74
2022/10/15 05:27:34;;;;;;;;;;;14.40;99.90;;;;;;5130292;27;19969;-74
2022/10/15 05:30:03;;;;;;;;;;;14.40;99.90;;;;;;5125168;28;19919;-75
2022/10/15 05:32:29;;;;;;;;;;;14.40;99.90;;;;;;5125094;28;20260;-75
2022/10/15 05:34:56;;;;;;;;;;;14.50;99.90;;;;;;5124844;28;20016;-75
2022/10/15 05:37:23;;;;;;;;;;;14.50;99.90;;;;;;5125002;28;20262;-76
2022/10/15 05:39:50;;;;;;;;;;;14.50;99.90;;;;;;5143304;27;19927;-75
2022/10/15 05:42:16;;;;;;;;;;;14.50;99.90;;;;;;5143998;27;20211;-76
2022/10/15 05:44:43;;;;;;;;;;;14.50;99.90;;;;;;5150566;27;19926;-75
2022/10/15 05:47:11;;;;;;;;;;;14.50;99.90;;;;;;5151813;27;19926;-75
2022/10/15 05:49:38;;;;;;;;;;;14.60;99.90;;;;;;5135532;28;19929;-76
2022/10/15 05:52:04;;;;;;;;;;;14.60;99.90;;;;;;5128135;28;20007;-75
2022/10/15 05:54:31;;;;;;;;;;;14.60;99.90;;;;;;5124585;28;19978;-75
2022/10/15 05:56:57;;;;;;;;;;;14.60;99.90;;;;;;5134875;27;19920;-75
2022/10/15 05:59:24;;;;;;;;;;;14.60;99.90;;;;;;5145663;27;19920;-75
2022/10/15 06:01:51;;;;;;;;;;;14.70;99.90;;;;;;5142278;27;19926;-76
2022/10/15 06:04:18;;;;;;;;;;;14.60;99.90;;;;;;5140130;27;19961;-75
2022/10/15 06:06:45;;;;;;;;;;;14.70;99.90;;;;;;5144758;27;19926;-74
2022/10/15 06:09:12;;;;;;;;;;;14.70;99.90;;;;;;5145089;27;20257;-75
2022/10/15 06:11:38;;;;;;;;;;;14.70;99.90;;;;;;5144337;27;19926;-75
2022/10/15 06:14:05;;;;;;;;;;;14.70;99.90;;;;;;5145141;27;20282;-74
2022/10/15 06:16:32;;;;;;;;;;;14.70;99.90;;;;;;5144967;27;19919;-75
2022/10/15 06:18:59;;;;;;;;;;;14.70;99.90;;;;;;5145193;27;19919;-74
2022/10/15 06:21:27;;;;;;;;;;;14.80;99.90;;;;;;5145117;27;20174;-74
2022/10/15 06:23:53;;;;;;;;;;;14.70;99.90;;;;;;5144988;27;19926;-75
2022/10/15 06:26:20;;;;;;;;;;;14.70;99.90;;;;;;5130470;27;19986;-74
2022/10/15 06:28:47;;;;;;;;;;;14.70;99.90;;;;;;5124442;28;20009;-75
2022/10/15 06:31:13;;;;;;;;;;;14.70;99.90;;;;;;5124189;28;19920;-74
2022/10/15 06:33:40;;;;;;;;;;;14.70;99.90;;;;;;5124506;28;19990;-74
2022/10/15 06:36:07;;;;;;;;;;;14.80;99.90;;;;;;5122945;28;20164;-74
2022/10/15 06:38:36;;;;;;;;;;;14.80;99.90;;;;;;5131218;27;19959;-75
2022/10/15 06:41:03;;;;;;;;;;;14.80;99.90;;;;;;5143930;27;19978;-74
2022/10/15 06:43:30;;;;;;;;;;;14.80;99.90;;;;;;5144346;27;19919;-74
2022/10/15 06:45:58;;;;;;;;;;;14.80;99.90;;;;;;5144296;27;19928;-74
2022/10/15 06:48:24;;;;;;;;;;;14.80;99.90;;;;;;5129612;27;19920;-74
2022/10/15 06:50:51;;;;;;;;;;;14.80;99.90;;;;;;5124127;28;19926;-75
2022/10/15 06:53:18;;;;;;;;;;;14.90;99.90;;;;;;5123024;28;19926;-74
2022/10/15 06:55:46;;;;;;;;;;;14.80;99.90;;;;;;5132371;27;19920;-74
2022/10/15 06:58:12;;;;;;;;;;;14.90;99.90;;;;;;5123884;28;20092;-74
2022/10/15 07:00:39;;;;;;;;;;;14.90;99.90;;;;;;5123754;28;19987;-74
2022/10/15 07:03:06;;;;;;;;;;;14.90;99.90;;;;;;5134645;28;19927;-75
2022/10/15 07:05:33;;;;;;;;;;;14.90;99.90;;;;;;5143960;27;20237;-74
2022/10/15 07:08:00;;;;;;;;;;;15.00;99.90;;;;;;5143707;28;19927;-75
2022/10/15 07:10:27;;;;;;;;;;;15.00;99.90;;;;;;5123946;28;19920;-74
2022/10/15 07:12:55;;;;;;;;;;;15.00;99.90;;;;;;5123532;28;19987;-74
2022/10/15 07:15:21;;;;;;;;;;;15.00;99.90;;;;;;5124707;28;19983;-75
2022/10/15 07:17:48;;;;;;;;;;;15.00;99.90;;;;;;5123613;28;19983;-75
2022/10/15 07:20:15;;;;;;;;;;;15.10;99.90;;;;;;5123770;28;19919;-75
2022/10/15 07:22:42;;;;;;;;;;;15.10;99.90;;;;;;5123631;28;19978;-75
2022/10/15 07:25:09;;;;;;;;;;;15.10;99.90;;;;;;5123277;28;19973;-74
2022/10/15 07:27:36;;;;;;;;;;;15.10;99.90;;;;;;5123549;28;19924;-75
2022/10/15 07:30:05;;;;;;;;;;;15.10;99.90;;;;;;5124549;28;19926;-74
2022/10/15 07:32:31;;;;;;;;;;;15.10;99.90;;;;;;5123541;28;19926;-75
2022/10/15 07:34:58;;;;;;;;;;;15.10;99.90;;;;;;5122226;28;19979;-74
2022/10/15 07:37:25;;;;;;;;;;;15.10;99.90;;;;;;5133070;28;19979;-74
2022/10/15 07:39:51;;;;;;;;;;;15.10;99.90;;;;;;5142727;28;19978;-74
2022/10/15 07:42:19;;;;;;;;;;;15.10;99.90;;;;;;5143961;27;20092;-74
2022/10/15 07:44:45;;;;;;;;;;;15.20;99.90;;;;;;5143628;27;19927;-74
2022/10/15 07:47:13;;;;;;;;;;;15.20;99.90;;;;;;5139699;28;19979;-75
2022/10/15 07:49:40;;;;;;;;;;;15.20;99.90;;;;;;5123330;28;20126;-75
2022/10/15 07:52:07;;;;;;;;;;;15.20;99.90;;;;;;5135816;28;19919;-75
2022/10/15 07:54:34;;;;;;;;;;;15.20;99.90;;;;;;5143362;28;19980;-75
2022/10/15 07:57:01;;;;;;;;;;;15.20;99.90;;;;;;5143768;28;19925;-75
2022/10/15 07:59:27;;;;;;;;;;;15.20;99.90;;;;;;5144046;28;19990;-74
2022/10/15 08:01:54;;;;;;;;;;;15.20;99.90;;;;;;5143455;28;19978;-75
2022/10/15 08:04:22;;;;;;;;;;;15.20;99.90;;;;;;5144995;27;19926;-75
2022/10/15 08:06:49;;;;;;;;;;;15.20;99.90;;;;;;5147172;27;19961;-75
2022/10/15 08:09:15;;;;;;;;;;;15.20;99.90;;;;;;5145853;27;20164;-75
2022/10/15 08:11:42;;;;;;;;;;;15.20;99.90;;;;;;5147169;27;19987;-74
2022/10/15 08:14:08;;;;;;;;;;;15.20;99.90;;;;;;5147663;27;19919;-75
2022/10/15 08:16:35;;;;;;;;;;;15.20;99.90;;;;;;5145534;27;19919;-75
2022/10/15 08:19:02;;;;;;;;;;;15.20;99.90;;;;;;5147146;27;19986;-74
2022/10/15 08:21:30;;;;;;;;;;;15.20;99.90;;;;;;5147261;27;19919;-74
2022/10/15 08:23:56;;;;;;;;;;;15.20;99.90;;;;;;5147176;27;20122;-74
2022/10/15 08:26:25;;;;;;;;;;;15.20;99.90;;;;;;5146760;27;19935;-75
2022/10/15 08:28:52;;;;;;;;;;;15.20;99.90;;;;;;5149622;27;19919;-73
2022/10/15 08:31:18;;;;;;;;;;;15.30;99.90;;;;;;5134003;27;20164;-74
2022/10/15 08:33:45;;;;;;;;;;;15.30;99.90;;;;;;5126406;28;19957;-74
2022/10/15 08:36:12;;;;;;;;;;;15.40;99.90;;;;;;5125649;28;19920;-75
2022/10/15 08:38:40;;;;;;;;;;;15.40;99.90;;;;;;5126439;27;20258;-75
2022/10/15 08:41:17;;;;;;;;;;;15.50;99.90;;;;;;5146989;27;19925;-74
2022/10/15 08:43:46;;;;;;;;;;;15.50;99.90;;;;;;5146782;27;19926;-75
2022/10/15 08:46:16;;;;;;;;;;;15.60;99.90;;;;;;5146675;27;19942;-75
2022/10/15 08:48:45;;;;;;;;;;;15.60;99.90;;;;;;5129486;27;19919;-74
2022/10/15 08:51:13;;;;;;;;;;;15.70;99.90;;;;;;5125974;28;20158;-75
2022/10/15 08:53:44;;;;;;;;;;;15.70;99.90;;;;;;5132537;27;20259;-74
2022/10/15 08:56:14;;;;;;;;;;;15.70;99.90;;;;;;5146566;27;20092;-75
2022/10/15 08:58:45;;;;;;;;;;;15.80;99.90;;;;;;5148711;27;20226;-74
2022/10/15 09:01:17;;;;;;;;;;;15.80;99.90;;;;;;5146623;27;19927;-75
2022/10/15 09:03:50;;;;;;;;;;;15.70;99.90;;;;;;5140590;27;19942;-75
2022/10/15 09:06:19;;;;;;;;;;;15.70;99.90;;;;;;5146371;27;19920;-75
2022/10/15 09:08:51;;;;;;;;;;;15.70;99.90;;;;;;5145556;27;20244;-75
2022/10/15 09:11:21;;;;;;;;;;;15.70;99.90;;;;;;5146044;27;20225;-75
2022/10/15 09:13:48;;;;;;;;;;;15.70;99.90;;;;;;5146081;27;19919;-75
2022/10/15 09:16:16;;;;;;;;;;;15.70;99.90;;;;;;5145047;27;19987;-75
2022/10/15 09:18:44;;;;;;;;;;;15.70;99.90;;;;;;5146203;27;19919;-75
2022/10/15 09:21:12;;;;;;;;;;;15.60;99.90;;;;;;5132658;27;19920;-75
2022/10/15 09:23:40;;;;;;;;;;;15.60;99.90;;;;;;5125595;28;20175;-75
2022/10/15 09:26:13;;;;;;;;;;;15.60;99.90;;;;;;5125144;28;19920;-75
2022/10/15 09:28:45;;;;;;;;;;;15.60;99.90;;;;;;5125346;28;19920;-76
2022/10/15 09:31:14;;;;;;;;;;;15.60;99.90;;;;;;5125551;28;19919;-75
2022/10/15 09:33:42;;;;;;;;;;;15.60;99.90;;;;;;5125347;28;19920;-75
2022/10/15 09:36:27;;;;;;;;;;;15.60;99.90;;;;;;5138917;27;19982;-75
2022/10/15 09:38:58;;;;;;;;;;;15.60;99.90;;;;;;5145635;27;20262;-75
2022/10/15 09:41:29;;;;;;;;;;;15.60;99.90;;;;;;5145606;27;20127;-75
2022/10/15 09:43:57;;;;;;;;;;;15.70;99.90;;;;;;5137336;27;19986;-75
2022/10/15 09:46:24;;;;;;;;;;;15.70;99.90;;;;;;5145419;27;19926;-75
2022/10/15 09:48:52;;;;;;;;;;;15.80;99.90;;;;;;5128675;27;19979;-75
2022/10/15 09:51:24;;;;;;;;;;;15.80;99.90;;;;;;5139316;27;19920;-75
2022/10/15 09:53:55;;;;;;;;;;;15.80;99.90;;;;;;5125114;27;19995;-74
2022/10/15 09:56:23;;;;;;;;;;;15.80;99.90;;;;;;5125087;28;19919;-75
2022/10/15 09:58:52;;;;;;;;;;;15.90;99.90;;;;;;5124788;28;20267;-75
2022/10/15 10:01:19;;;;;;;;;;;15.80;99.90;;;;;;5129558;27;19987;-75
2022/10/15 10:03:48;;;;;;;;;;;15.90;99.90;;;;;;5136550;27;19950;-75
2022/10/15 10:06:15;;;;;;;;;;;16.00;99.90;;;;;;5144794;27;20227;-75
2022/10/15 10:08:47;;;;;;;;;;;16.00;99.90;;;;;;5145359;27;19986;-75
2022/10/15 10:11:14;;;;;;;;;;;16.00;99.90;;;;;;5145402;27;19919;-75
2022/10/15 10:13:44;;;;;;;;;;;16.00;99.90;;;;;;5145215;27;20207;-75
2022/10/15 10:16:13;;;;;;;;;;;16.00;99.90;;;;;;5144680;27;19956;-75
2022/10/15 10:18:41;;;;;;;;;;;16.00;99.90;;;;;;5144360;27;19919;-75
2022/10/15 10:21:20;;;;;;;;;;;16.00;99.90;;;;;;5145262;27;19934;-75
2022/10/15 10:23:47;;;;;;;;;;;16.10;99.90;;;;;;5145266;27;19957;-75
2022/10/15 10:26:14;;;;;;;;;;;16.20;99.90;;;;;;5135893;27;20266;-75
2022/10/15 10:28:43;;;;;;;;;;;16.20;99.90;;;;;;5144811;27;19926;-75
2022/10/15 10:31:10;;;;;;;;;;;16.30;99.90;;;;;;5144644;27;19920;-75
2022/10/15 10:33:44;;;;;;;;;;;16.40;99.90;;;;;;5143581;27;19927;-75
2022/10/15 10:36:19;;;;;;;;;;;16.50;99.90;;;;;;5127652;27;19920;-75
2022/10/15 10:38:55;;;;;;;;;;;16.50;99.90;;;;;;5133025;27;19919;-75
2022/10/15 10:41:22;;;;;;;;;;;16.60;99.90;;;;;;5144775;27;19919;-77
2022/10/15 10:43:53;;;;;;;;;;;16.70;99.90;;;;;;5144605;27;19955;-76
2022/10/15 10:46:22;;;;;;;;;;;16.70;99.90;;;;;;5144443;27;19941;-75
2022/10/15 10:48:51;;;;;;;;;;;16.80;99.90;;;;;;5143026;27;20133;-75
2022/10/15 10:51:19;;;;;;;;;;;17.00;99.90;;;;;;5131818;27;19927;-75
2022/10/15 10:53:50;;;;;;;;;;;17.10;99.90;;;;;;5123884;28;19919;-75
2022/10/15 10:56:20;;;;;;;;;;;17.20;99.90;;;;;;5123568;28;19950;-75
2022/10/15 10:58:47;;;;;;;;;;;17.30;99.90;;;;;;5124376;28;19920;-75
2022/10/15 11:01:15;;;;;;;;;;;17.50;99.90;;;;;;5127848;27;19982;-75
2022/10/15 11:03:43;;;;;;;;;;;17.60;99.90;;;;;;5144045;27;20231;-75
2022/10/15 11:06:20;;;;;;;;;;;17.60;99.90;;;;;;5127587;28;19920;-75
2022/10/15 11:08:52;;;;;;;;;;;17.70;99.90;;;;;;5123773;28;19919;-75
2022/10/15 11:11:22;;;;;;;;;;;17.60;99.90;;;;;;5123998;28;19926;-75
2022/10/15 11:13:58;;;;;;;;;;;17.50;99.90;;;;;;5141816;28;20203;-75
2022/10/15 11:16:28;;;;;;;;;;;17.50;99.90;;;;;;5144125;28;19933;-75
2022/10/15 11:19:00;;;;;;;;;;;17.40;99.90;;;;;;5141130;22;19995;-72
2022/10/15 11:21:37;;;;;;;;;;;17.40;99.90;;;;;;5123852;28;19934;-73
2022/10/15 11:24:08;;;;;;;;;;;17.40;99.90;;;;;;5123500;28;19980;-73
2022/10/15 11:26:40;;;;;;;;;;;17.50;99.90;;;;;;5123291;28;19920;-73
2022/10/15 11:29:11;;;;;;;;;;;17.50;99.90;;;;;;5123274;28;19920;-73
2022/10/15 11:31:43;;;;;;;;;;;17.50;99.90;;;;;;5123595;28;19919;-73
2022/10/15 11:34:17;;;;;;;;;;;17.50;99.90;;;;;;5123583;28;19970;-73
2022/10/15 11:36:50;;;;;;;;;;;17.60;99.90;;;;;;5123205;28;19920;-73
2022/10/15 11:39:27;;;;;;;;;;;17.70;99.90;;;;;;5098171;28;20230;-73
2022/10/15 11:41:57;;;;;;;;;;;17.70;99.90;;;;;;5098679;28;20287;-73
2022/10/15 11:44:29;;;;;;;;;;;17.70;99.90;;;;;;5121072;28;19982;-73
2022/10/15 11:47:01;;;;;;;;;;;17.70;99.90;;;;;;5123373;28;20160;-73
2022/10/15 11:49:34;;;;;;;;;;;17.60;99.90;;;;;;5086697;28;20191;-73
2022/10/15 11:52:07;;;;;;;;;;;17.60;99.90;;;;;;5086678;28;20176;-73
2022/10/15 11:54:36;;;;;;;;;;;17.50;99.90;;;;;;5085047;28;20279;-73
2022/10/15 11:57:04;;;;;;;;;;;17.40;99.90;;;;;;5086607;28;20114;-73
2022/10/15 11:59:33;;;;;;;;;;;17.40;99.90;;;;;;5105113;28;20111;-73
2022/10/15 12:02:01;;;;;;;;;;;17.30;99.90;;;;;;5116610;28;19963;-72
2022/10/15 12:04:32;;;;;;;;;;;17.20;99.90;;;;;;5106643;28;19919;-73
2022/10/15 12:07:00;;;;;;;;;;;17.10;99.90;;;;;;5106333;28;20093;-73
2022/10/15 12:09:30;;;;;;;;;;;17.10;99.90;;;;;;5106917;28;19920;-73
2022/10/15 12:12:01;;;;;;;;;;;17.10;99.90;;;;;;5106603;28;19943;-73
2022/10/15 12:14:30;;;;;;;;;;;17.10;99.90;;;;;;5106526;28;19920;-73
2022/10/15 12:17:02;;;;;;;;;;;17.00;99.90;;;;;;5106254;28;19927;-72
2022/10/15 12:19:34;;;;;;;;;;;17.00;99.90;;;;;;5106418;28;19926;-73
2022/10/15 12:22:05;;;;;;;;;;;17.00;99.90;;;;;;5106408;28;19998;-73
2022/10/15 12:24:53;;;;;;;;;;;17.10;99.90;;;;;;5106288;28;20146;-73
2022/10/15 12:27:33;;;;;;;;;;;17.20;99.90;;;;;;5106252;28;19954;-73
2022/10/15 12:30:18;;;;;;;;;;;17.40;99.90;;;;;;5085888;28;20226;-73
2022/10/15 12:32:46;;;;;;;;;;;17.90;99.90;;;;;;5086137;28;19920;-73
2022/10/15 12:35:21;;;;;;;;;;;18.10;99.90;;;;;;5085694;28;20116;-73
2022/10/15 12:37:48;;;;;;;;;;;18.30;99.90;;;;;;5086791;28;20187;-73
2022/10/15 12:40:25;;;;;;;;;;;18.30;99.90;;;;;;5105996;28;19982;-73
2022/10/15 12:42:53;;;;;;;;;;;18.40;99.90;;;;;;5112903;28;20261;-73
2022/10/15 12:45:21;;;;;;;;;;;18.30;99.90;;;;;;5105781;28;19920;-73
2022/10/15 12:47:49;;;;;;;;;;;18.20;99.90;;;;;;5105685;28;20184;-71
2022/10/15 12:50:18;;;;;;;;;;;18.20;99.90;;;;;;5105393;28;19920;-71
2022/10/15 12:52:51;;;;;;;;;;;18.10;99.90;;;;;;5104706;28;19926;-70
2022/10/15 12:55:27;;;;;;;;;;;18.20;99.90;;;;;;5105475;28;20007;-70
2022/10/15 12:57:56;;;;;;;;;;;18.20;99.90;;;;;;5105696;28;20115;-71
2022/10/15 13:00:36;;;;;;;;;;;18.30;99.90;;;;;;5089331;28;19920;-70
2022/10/15 13:03:10;;;;;;;;;;;18.40;99.90;;;;;;5098814;28;19927;-70
2022/10/15 13:05:37;;;;;;;;;;;18.40;99.90;;;;;;5084598;28;19927;-71
2022/10/15 13:08:11;;;;;;;;;;;18.30;99.90;;;;;;5085162;28;20115;-71
2022/10/15 13:10:40;;;;;;;;;;;18.30;99.90;;;;;;5085268;28;19927;-71
2022/10/15 13:13:12;;;;;;;;;;;18.20;99.90;;;;;;5085185;28;19927;-71
2022/10/15 13:15:39;;;;;;;;;;;18.20;99.90;;;;;;5102268;28;19955;-70
2022/10/15 13:18:07;;;;;;;;;;;18.30;99.90;;;;;;5125697;28;19928;-70
2022/10/15 13:20:36;;;;;;;;;;;18.50;99.90;;;;;;5125533;28;20211;-70
2022/10/15 13:23:09;;;;;;;;;;;18.70;99.90;;;;;;5110691;28;20144;-70
2022/10/15 13:25:36;;;;;;;;;;;18.80;99.90;;;;;;5104834;28;19920;-71
2022/10/15 13:28:24;;;;;;;;;;;18.80;99.90;;;;;;5104914;28;19963;-71
2022/10/15 13:30:51;;;;;;;;;;;18.70;99.90;;;;;;5106025;28;20199;-70
2022/10/15 13:33:18;;;;;;;;;;;18.70;99.90;;;;;;5111083;28;19992;-70
2022/10/15 13:35:45;;;;;;;;;;;18.70;99.90;;;;;;5125354;28;19926;-71
2022/10/15 13:38:18;;;;;;;;;;;18.70;99.90;;;;;;5121105;28;19983;-71
2022/10/15 13:40:47;;;;;;;;;;;18.80;99.90;;;;;;5104620;28;19920;-71
2022/10/15 13:43:17;;;;;;;;;;;19.00;99.90;;;;;;5104538;28;20231;-70
2022/10/15 13:45:46;;;;;;;;;;;19.10;99.90;;;;;;5104705;28;19920;-71
2022/10/15 13:48:12;;;;;;;;;;;19.30;99.90;;;;;;5091867;28;19983;-71
2022/10/15 13:50:39;;;;;;;;;;;19.50;99.90;;;;;;5092378;28;19991;-70
2022/10/15 13:53:12;;;;;;;;;;;19.70;99.90;;;;;;5104506;28;19920;-71
2022/10/15 13:55:43;;;;;;;;;;;19.80;99.90;;;;;;5104463;28;19995;-70
2022/10/15 13:58:17;;;;;;;;;;;20.00;99.90;;;;;;5104398;28;19984;-71
2022/10/15 14:00:49;;;;;;;;;;;19.90;99.90;;;;;;5104569;28;19920;-70
2022/10/15 14:03:17;;;;;;;;;;;19.80;99.90;;;;;;5098539;28;20065;-70
2022/10/15 14:05:44;;;;;;;;;;;19.60;99.90;;;;;;5116206;28;19986;-71
2022/10/15 14:08:15;;;;;;;;;;;19.40;99.90;;;;;;5123921;28;19924;-71
2022/10/15 14:10:41;;;;;;;;;;;19.20;99.90;;;;;;5124577;28;20241;-70
2022/10/15 14:13:08;;;;;;;;;;;19.10;99.90;;;;;;5124465;28;19987;-70
2022/10/15 14:15:47;;;;;;;;;;;19.00;99.90;;;;;;5124168;28;19927;-71
2022/10/15 14:18:16;;;;;;;;;;;18.90;99.90;;;;;;5124339;28;19920;-71
2022/10/15 14:20:43;;;;;;;;;;;18.90;99.90;;;;;;5112799;28;19998;-70
2022/10/15 14:23:14;;;;;;;;;;;18.90;99.90;;;;;;5103947;28;20254;-71
2022/10/15 14:25:41;;;;;;;;;;;18.80;99.90;;;;;;5103662;28;19966;-71